createdAt,value
2023-05-19T00:02:25.918Z,4.50
2023-05-19T00:04:53.144Z,3.65
2023-05-19T00:07:22.521Z,3.95
2023-05-19T00:09:49.540Z,4.40
2023-05-19T00:12:16.637Z,4.07
2023-05-19T00:14:43.665Z,4.60
2023-05-19T00:17:10.646Z,3.92
2023-05-19T00:19:38.048Z,4.32
2023-05-19T00:22:05.360Z,3.95
2023-05-19T00:24:32.465Z,4.18
2023-05-19T00:26:59.158Z,4.72
2023-05-19T00:29:25.906Z,4.38
2023-05-19T00:31:52.684Z,5.13
2023-05-19T00:34:19.676Z,4.72
2023-05-19T00:36:46.456Z,4.85
2023-05-19T00:39:14.174Z,4.95
2023-05-19T00:41:41.704Z,5.28
2023-05-19T00:44:08.573Z,4.43
2023-05-19T00:46:35.666Z,5.05
2023-05-19T00:49:02.500Z,4.15
2023-05-19T00:51:29.791Z,4.85
2023-05-19T00:53:57.700Z,4.30
2023-05-19T00:56:24.422Z,4.47
2023-05-19T00:58:51.848Z,4.03
2023-05-19T01:01:21.294Z,4.28
2023-05-19T01:03:48.595Z,4.32
2023-05-19T01:06:15.690Z,6.30
2023-05-19T01:08:42.505Z,4.93
2023-05-19T01:11:10.307Z,5.05
2023-05-19T01:13:39.113Z,6.15
2023-05-19T01:16:33.760Z,4.85
2023-05-19T01:19:31.986Z,4.25
2023-05-19T01:22:27.451Z,4.25
2023-05-19T01:25:23.177Z,4.60
2023-05-19T01:28:11.590Z,4.82
2023-05-19T01:30:43.124Z,5.00
2023-05-19T01:33:14.204Z,4.72
2023-05-19T01:35:43.478Z,4.32
2023-05-19T01:38:12.723Z,5.90
2023-05-19T01:40:41.891Z,4.47
2023-05-19T01:43:12.839Z,5.28
2023-05-19T01:45:40.419Z,4.70
2023-05-19T01:48:10.631Z,4.80
2023-05-19T01:50:39.341Z,5.03
2023-05-19T01:53:06.347Z,4.65
2023-05-19T01:55:51.260Z,4.55
2023-05-19T01:58:47.354Z,5.40
2023-05-19T02:01:37.013Z,5.38
2023-05-19T02:04:18.617Z,5.43
2023-05-19T02:06:48.878Z,5.88
2023-05-19T02:09:37.457Z,5.82
2023-05-19T02:12:22.634Z,6.82
2023-05-19T02:14:54.767Z,4.75
2023-05-19T02:17:23.291Z,5.10
2023-05-19T02:19:51.401Z,6.43
2023-05-19T02:22:18.133Z,5.60
2023-05-19T02:24:46.535Z,5.78
2023-05-19T02:27:13.392Z,6.90
2023-05-19T02:29:40.161Z,5.25
2023-05-19T02:32:07.456Z,5.82
2023-05-19T02:34:34.249Z,5.55
2023-05-19T02:37:01.274Z,5.47
2023-05-19T02:39:30.159Z,5.40
2023-05-19T02:41:56.874Z,5.75
2023-05-19T02:44:23.591Z,5.70
2023-05-19T02:46:50.925Z,4.63
2023-05-19T02:49:18.009Z,5.65
2023-05-19T02:51:44.752Z,4.93
2023-05-19T02:54:11.630Z,5.53
2023-05-19T02:56:38.416Z,5.18
2023-05-19T02:59:06.252Z,5.53
2023-05-19T03:01:33.718Z,5.65
2023-05-19T03:04:00.775Z,6.00
2023-05-19T03:06:28.202Z,5.22
2023-05-19T03:08:54.953Z,5.50
2023-05-19T03:11:23.221Z,5.13
2023-05-19T03:13:50.054Z,5.50
2023-05-19T03:16:16.887Z,5.47
2023-05-19T03:18:43.664Z,5.72
2023-05-19T03:21:10.613Z,5.85
2023-05-19T03:23:37.316Z,5.10
2023-05-19T03:26:05.088Z,5.80
2023-05-19T03:28:32.022Z,6.57
2023-05-19T03:30:58.792Z,5.90
2023-05-19T03:33:29.907Z,5.30
2023-05-19T03:35:57.451Z,6.00
2023-05-19T03:38:24.353Z,5.88
2023-05-19T03:40:56.460Z,5.53
2023-05-19T03:43:23.466Z,5.50
2023-05-19T03:45:56.774Z,5.85
2023-05-19T03:48:46.172Z,5.45
2023-05-19T03:51:31.326Z,6.43
2023-05-19T03:54:08.400Z,5.45
2023-05-19T03:56:39.274Z,6.18
2023-05-19T04:01:36.561Z,5.93
2023-05-19T04:04:03.558Z,5.75
2023-05-19T04:06:31.487Z,6.10
2023-05-19T04:08:59.064Z,6.20
2023-05-19T04:11:25.818Z,5.97
2023-05-19T04:13:52.498Z,5.90
2023-05-19T04:16:19.380Z,6.40
2023-05-19T04:18:46.441Z,6.97
2023-05-19T04:21:13.351Z,7.85
2023-05-19T04:23:40.144Z,6.95
2023-05-19T04:26:06.969Z,6.10
2023-05-19T04:28:36.713Z,6.93
2023-05-19T04:31:03.553Z,6.00
2023-05-19T04:33:30.383Z,6.38
2023-05-19T04:35:58.381Z,6.15
2023-05-19T04:38:25.181Z,7.45
2023-05-19T04:40:52.477Z,8.60
2023-05-19T04:43:19.392Z,7.20
2023-05-19T04:45:47.325Z,7.75
2023-05-19T04:48:15.238Z,7.85
2023-05-19T04:50:48.670Z,8.15
2023-05-19T04:53:15.983Z,8.40
2023-05-19T04:55:42.859Z,8.80
2023-05-19T04:58:09.774Z,8.25
2023-05-19T05:00:39.869Z,6.78
2023-05-19T05:03:08.952Z,7.57
2023-05-19T05:05:36.151Z,7.65
2023-05-19T05:08:03.248Z,7.60
2023-05-19T05:10:35.288Z,8.00
2023-05-19T05:13:02.413Z,8.00
2023-05-19T05:15:30.326Z,7.88
2023-05-19T05:18:00.312Z,7.85
2023-05-19T05:20:27.559Z,7.90
2023-05-19T05:22:54.668Z,7.70
2023-05-19T05:25:22.828Z,7.03
2023-05-19T05:27:50.280Z,7.53
2023-05-19T05:30:17.065Z,7.68
2023-05-19T05:32:44.400Z,8.48
2023-05-19T05:35:24.259Z,7.13
2023-05-19T05:37:51.316Z,7.40
2023-05-19T05:40:18.399Z,7.00
2023-05-19T05:42:45.553Z,7.78
2023-05-19T05:45:12.321Z,7.38
2023-05-19T05:47:41.325Z,6.50
2023-05-19T05:50:10.110Z,6.68
2023-05-19T05:52:37.624Z,6.70
2023-05-19T05:55:05.887Z,7.50
2023-05-19T05:57:36.807Z,6.40
2023-05-19T06:00:15.243Z,7.20
2023-05-19T06:02:50.659Z,6.00
2023-05-19T06:05:19.173Z,7.05
2023-05-19T06:07:47.442Z,7.25
2023-05-19T06:10:19.675Z,7.10
2023-05-19T06:12:47.997Z,6.45
2023-05-19T06:15:15.499Z,6.05
2023-05-19T06:17:51.079Z,7.00
2023-05-19T06:20:19.881Z,7.07
2023-05-19T06:22:46.603Z,5.75
2023-05-19T06:25:17.146Z,6.40
2023-05-19T06:27:44.412Z,5.57
2023-05-19T06:30:11.868Z,6.07
2023-05-19T06:32:49.342Z,6.38
2023-05-19T06:35:18.997Z,6.35
2023-05-19T06:37:45.873Z,6.25
2023-05-19T06:40:13.205Z,5.95
2023-05-19T06:42:42.001Z,4.93
2023-05-19T06:45:27.064Z,5.82
2023-05-19T06:47:55.560Z,6.28
2023-05-19T06:50:22.489Z,5.53
2023-05-19T06:52:50.651Z,6.35
2023-05-19T06:55:18.256Z,5.90
2023-05-19T06:57:45.137Z,5.63
2023-05-19T07:00:17.809Z,6.90
2023-05-19T07:02:47.788Z,5.75
2023-05-19T07:05:16.062Z,5.82
2023-05-19T07:07:46.475Z,5.97
2023-05-19T07:10:17.341Z,5.95
2023-05-19T07:12:44.879Z,6.65
2023-05-19T07:15:12.339Z,5.78
2023-05-19T07:17:39.190Z,5.53
2023-05-19T07:20:06.869Z,5.53
2023-05-19T07:22:36.579Z,5.55
2023-05-19T07:25:03.485Z,5.47
2023-05-19T07:27:30.585Z,5.57
2023-05-19T07:29:57.521Z,5.57
2023-05-19T07:32:24.460Z,4.80
2023-05-19T07:34:51.309Z,4.72
2023-05-19T07:37:18.112Z,5.43
2023-05-19T07:39:44.875Z,4.80
2023-05-19T07:42:11.724Z,5.68
2023-05-19T07:44:38.502Z,5.03
2023-05-19T07:47:05.859Z,5.32
2023-05-19T07:49:32.685Z,4.93
2023-05-19T07:51:59.428Z,5.03
2023-05-19T07:54:26.160Z,4.57
2023-05-19T07:56:52.903Z,4.78
2023-05-19T07:59:19.640Z,4.18
2023-05-19T08:01:46.457Z,5.13
2023-05-19T08:04:13.479Z,5.13
2023-05-19T08:06:42.576Z,5.22
2023-05-19T08:09:09.556Z,4.95
2023-05-19T08:11:36.935Z,4.47
2023-05-19T08:14:04.019Z,5.25
2023-05-19T08:16:31.047Z,4.15
2023-05-19T08:18:57.896Z,4.47
2023-05-19T08:21:24.673Z,4.28
2023-05-19T08:23:51.901Z,3.10
2023-05-19T08:26:18.628Z,3.40
2023-05-19T08:28:45.357Z,3.20
2023-05-19T08:31:12.064Z,2.55
2023-05-19T08:33:38.935Z,3.00
2023-05-19T08:36:06.515Z,2.80
2023-05-19T08:38:33.295Z,2.38
2023-05-19T08:41:00.152Z,2.20
2023-05-19T08:43:27.276Z,2.10
2023-05-19T08:45:55.510Z,2.40
2023-05-19T08:48:22.579Z,3.00
2023-05-19T08:51:17.842Z,2.78
2023-05-19T08:53:50.278Z,3.03
2023-05-19T08:56:21.946Z,3.13
2023-05-19T08:58:50.788Z,2.67
2023-05-19T09:01:19.333Z,2.92
2023-05-19T09:03:47.114Z,2.80
2023-05-19T09:06:13.971Z,3.03
2023-05-19T09:08:42.125Z,2.05
2023-05-19T09:11:12.075Z,2.38
2023-05-19T09:13:39.451Z,2.60
2023-05-19T09:16:06.588Z,2.10
2023-05-19T09:18:33.572Z,2.38
2023-05-19T09:21:03.066Z,2.38
2023-05-19T09:23:33.491Z,2.50
2023-05-19T09:26:07.449Z,2.17
2023-05-19T09:28:36.357Z,2.33
2023-05-19T09:31:04.896Z,2.15
2023-05-19T09:33:35.644Z,3.10
2023-05-19T09:36:03.481Z,2.80
2023-05-19T09:38:30.248Z,2.85
2023-05-19T09:40:58.387Z,2.50
2023-05-19T09:43:28.658Z,2.53
2023-05-19T09:46:06.682Z,2.67
2023-05-19T09:48:34.658Z,2.53
2023-05-19T09:51:02.325Z,2.25
2023-05-19T09:53:34.036Z,2.20
2023-05-19T09:56:02.255Z,2.13
2023-05-19T09:58:36.675Z,2.67
2023-05-19T10:01:04.980Z,2.47
2023-05-19T10:03:35.404Z,2.60
2023-05-19T10:06:03.867Z,2.33
2023-05-19T10:08:31.776Z,2.03
2023-05-19T10:10:59.058Z,2.83
2023-05-19T10:13:26.935Z,2.30
2023-05-19T10:15:58.610Z,2.40
2023-05-19T10:18:27.651Z,2.75
2023-05-19T10:20:55.194Z,2.38
2023-05-19T10:23:22.375Z,2.20
2023-05-19T10:25:51.320Z,2.03
2023-05-19T10:28:21.051Z,2.67
2023-05-19T10:30:50.934Z,2.55
2023-05-19T10:33:19.925Z,2.65
2023-05-19T10:36:25.107Z,2.35
2023-05-19T10:39:05.384Z,1.85
2023-05-19T10:41:50.851Z,2.30
2023-05-19T10:44:35.265Z,2.80
2023-05-19T10:47:02.145Z,2.25
2023-05-19T10:49:29.007Z,2.58
2023-05-19T10:51:58.679Z,2.58
2023-05-19T10:54:46.237Z,2.15
2023-05-19T10:57:17.214Z,2.50
2023-05-19T10:59:47.184Z,2.30
2023-05-19T11:02:40.091Z,2.42
2023-05-19T11:05:15.018Z,2.72
2023-05-19T11:07:44.355Z,2.65
2023-05-19T11:10:11.469Z,2.28
2023-05-19T11:12:43.315Z,2.85
2023-05-19T11:15:13.445Z,2.70
2023-05-19T11:17:43.569Z,2.80
2023-05-19T11:20:27.498Z,2.10
2023-05-19T11:23:02.173Z,2.40
2023-05-19T11:25:49.016Z,2.17
2023-05-19T11:28:19.321Z,2.60
2023-05-19T11:30:51.664Z,2.60
2023-05-19T11:33:20.419Z,3.05
2023-05-19T11:35:49.390Z,2.13
2023-05-19T11:38:18.544Z,2.25
2023-05-19T11:40:45.417Z,2.38
2023-05-19T11:43:12.193Z,2.65
2023-05-19T11:45:39.467Z,2.75
2023-05-19T11:48:06.806Z,2.30
2023-05-19T11:50:33.742Z,2.72
2023-05-19T11:53:01.676Z,2.72
2023-05-19T11:55:29.382Z,2.90
2023-05-19T11:58:04.679Z,3.10
2023-05-19T12:00:39.977Z,2.72
2023-05-19T12:03:07.844Z,2.90
2023-05-19T12:05:42.050Z,2.75
2023-05-19T12:08:11.539Z,2.38
2023-05-19T12:10:39.883Z,2.33
2023-05-19T12:13:10.283Z,2.60
2023-05-19T12:15:37.946Z,2.42
2023-05-19T12:18:04.884Z,2.53
2023-05-19T12:20:32.725Z,2.47
2023-05-19T12:23:01.163Z,2.55
2023-05-19T12:25:29.702Z,2.47
2023-05-19T12:28:00.369Z,2.40
2023-05-19T12:30:31.123Z,2.50
2023-05-19T12:32:58.659Z,2.17
2023-05-19T12:35:30.237Z,2.42
2023-05-19T12:37:57.716Z,2.15
2023-05-19T12:40:26.161Z,2.08
2023-05-19T12:42:58.711Z,2.38
2023-05-19T12:45:27.813Z,2.45
2023-05-19T12:47:54.810Z,2.35
2023-05-19T12:50:21.651Z,2.85
2023-05-19T12:52:53.251Z,2.50
2023-05-19T12:55:20.868Z,2.40
2023-05-19T12:57:57.892Z,2.72
2023-05-19T13:00:31.118Z,2.15
2023-05-19T13:03:00.051Z,2.65
2023-05-19T13:05:29.022Z,2.30
2023-05-19T13:08:00.743Z,2.10
2023-05-19T13:10:28.363Z,2.08
2023-05-19T13:12:56.159Z,1.90
2023-05-19T13:15:26.623Z,2.47
2023-05-19T13:17:54.591Z,2.15
2023-05-19T13:20:21.731Z,2.08
2023-05-19T13:22:49.028Z,2.17
2023-05-19T13:25:16.354Z,1.95
2023-05-19T13:27:44.520Z,2.35
2023-05-19T13:30:11.856Z,2.38
2023-05-19T13:32:38.703Z,2.00
2023-05-19T13:35:06.045Z,2.80
2023-05-19T13:37:32.910Z,2.05
2023-05-19T13:39:59.741Z,2.45
2023-05-19T13:42:26.690Z,1.98
2023-05-19T13:44:56.714Z,2.05
2023-05-19T13:47:24.020Z,2.20
2023-05-19T13:49:51.830Z,2.67
2023-05-19T13:52:20.723Z,2.28
2023-05-19T13:54:48.531Z,2.70
2023-05-19T13:57:16.372Z,2.10
2023-05-19T14:00:00.130Z,1.90
2023-05-19T14:02:28.368Z,2.17
2023-05-19T14:04:55.873Z,2.40
2023-05-19T14:07:22.634Z,2.55
2023-05-19T14:09:51.064Z,2.25
2023-05-19T14:12:17.911Z,2.22
2023-05-19T14:14:45.031Z,2.50
2023-05-19T14:17:12.193Z,2.58
2023-05-19T14:19:38.970Z,2.08
2023-05-19T14:22:05.947Z,2.20
2023-05-19T14:24:32.685Z,2.25
2023-05-19T14:26:59.397Z,2.45
2023-05-19T14:29:26.541Z,2.08
2023-05-19T14:31:53.382Z,2.17
2023-05-19T14:34:21.155Z,1.85
2023-05-19T14:36:48.758Z,2.47
2023-05-19T14:39:15.770Z,2.25
2023-05-19T14:41:42.540Z,1.98
2023-05-19T14:44:09.278Z,2.50
2023-05-19T14:46:36.226Z,2.42
2023-05-19T14:49:03.476Z,2.03
2023-05-19T14:51:30.225Z,2.00
2023-05-19T14:53:57.032Z,2.28
2023-05-19T14:56:23.753Z,2.38
2023-05-19T14:58:50.428Z,2.10
2023-05-19T15:01:17.157Z,1.92
2023-05-19T15:03:43.925Z,2.33
2023-05-19T15:06:11.748Z,2.05
2023-05-19T15:08:40.553Z,2.10
2023-05-19T15:11:07.823Z,1.85
2023-05-19T15:13:34.616Z,2.08
2023-05-19T15:16:16.370Z,1.98
2023-05-19T15:18:44.398Z,2.25
2023-05-19T15:21:11.242Z,1.80
2023-05-19T15:23:37.950Z,1.92
2023-05-19T15:26:05.154Z,2.08
2023-05-19T15:28:32.258Z,2.00
2023-05-19T15:30:59.035Z,2.60
2023-05-19T15:33:25.912Z,2.08
2023-05-19T15:35:52.708Z,2.20
2023-05-19T15:38:19.922Z,2.13
2023-05-19T15:40:46.912Z,2.00
2023-05-19T15:43:14.154Z,2.28
2023-05-19T15:45:40.971Z,2.00
2023-05-19T15:48:08.382Z,1.98
2023-05-19T15:50:36.064Z,2.30
2023-05-19T15:53:03.358Z,1.60
2023-05-19T15:55:30.153Z,1.80
2023-05-19T15:57:56.944Z,2.00
2023-05-19T16:00:23.735Z,2.30
2023-05-19T16:02:50.651Z,1.75
2023-05-19T16:05:17.908Z,1.90
2023-05-19T16:07:44.995Z,1.83
2023-05-19T16:10:11.924Z,2.25
2023-05-19T16:12:38.721Z,2.17
2023-05-19T16:15:05.935Z,2.13
2023-05-19T16:17:32.756Z,2.17
2023-05-19T16:19:59.490Z,2.08
2023-05-19T16:22:27.128Z,1.92
2023-05-19T16:24:53.920Z,1.60
2023-05-19T16:27:20.717Z,1.42
2023-05-19T16:29:47.408Z,1.73
2023-05-19T16:32:14.225Z,1.75
2023-05-19T16:34:41.025Z,1.55
2023-05-19T16:37:07.808Z,1.70
2023-05-19T16:39:37.161Z,1.77
2023-05-19T16:42:04.662Z,1.65
2023-05-19T16:44:31.582Z,1.83
2023-05-19T16:46:58.372Z,1.92
2023-05-19T16:49:25.156Z,2.00
2023-05-19T16:51:53.072Z,1.52
2023-05-19T16:54:21.125Z,1.50
2023-05-19T16:56:47.905Z,1.38
2023-05-19T16:59:14.734Z,1.70
2023-05-19T17:01:41.719Z,1.58
2023-05-19T17:04:08.810Z,2.00
2023-05-19T17:06:35.888Z,1.70
2023-05-19T17:09:02.764Z,1.90
2023-05-19T17:11:29.557Z,1.85
2023-05-19T17:13:56.410Z,1.50
2023-05-19T17:16:23.752Z,1.50
2023-05-19T17:18:51.077Z,1.88
2023-05-19T17:21:17.971Z,2.75
2023-05-19T17:23:44.698Z,1.63
2023-05-19T17:26:11.542Z,1.98
2023-05-19T17:28:38.269Z,1.67
2023-05-19T17:31:14.991Z,2.08
2023-05-19T17:33:41.917Z,1.63
2023-05-19T17:36:09.479Z,1.95
2023-05-19T17:38:40.131Z,1.70
2023-05-19T17:41:10.671Z,1.70
2023-05-19T17:43:38.051Z,1.65
2023-05-19T17:46:05.121Z,1.85
2023-05-19T17:48:32.486Z,1.35
2023-05-19T17:50:59.413Z,1.95
2023-05-19T17:53:26.859Z,2.00
2023-05-19T17:55:58.672Z,1.52
2023-05-19T17:58:26.093Z,1.70
2023-05-19T18:00:54.034Z,2.42
2023-05-19T18:03:21.887Z,2.78
2023-05-19T18:05:50.056Z,6.78
2023-05-19T18:08:17.651Z,4.35
2023-05-19T18:10:45.938Z,6.43
2023-05-19T18:13:15.961Z,2.25
2023-05-19T18:15:42.845Z,1.60
2023-05-19T18:18:10.878Z,1.27
2023-05-19T18:20:38.712Z,1.80
2023-05-19T18:23:05.956Z,1.80
2023-05-19T18:25:32.678Z,1.80
2023-05-19T18:27:59.367Z,1.48
2023-05-19T18:30:26.554Z,1.83
2023-05-19T18:32:53.227Z,1.80
2023-05-19T18:35:21.287Z,1.83
2023-05-19T18:37:48.090Z,2.05
2023-05-19T18:40:14.810Z,2.03
2023-05-19T18:42:41.602Z,2.42
2023-05-19T18:45:08.679Z,3.55
2023-05-19T18:47:35.618Z,3.08
2023-05-19T18:50:02.378Z,2.63
2023-05-19T18:52:30.716Z,3.17
2023-05-19T18:54:57.500Z,3.83
2023-05-19T18:57:24.203Z,2.88
2023-05-19T18:59:50.957Z,2.75
2023-05-19T19:02:17.677Z,3.00
2023-05-19T19:04:45.282Z,2.83
2023-05-19T19:07:12.199Z,3.13
2023-05-19T19:09:39.446Z,2.83
2023-05-19T19:12:06.753Z,3.40
2023-05-19T19:14:33.687Z,3.75
2023-05-19T19:17:00.578Z,3.25
2023-05-19T19:19:29.788Z,3.28
2023-05-19T19:21:56.996Z,3.10
2023-05-19T19:24:23.752Z,9.13
2023-05-19T19:26:50.469Z,4.40
2023-05-19T19:29:18.191Z,3.88
2023-05-19T19:31:45.152Z,3.42
2023-05-19T19:34:12.058Z,3.40
2023-05-19T19:36:38.882Z,2.83
2023-05-19T19:39:05.653Z,3.58
2023-05-19T19:41:33.332Z,2.78
2023-05-19T19:44:00.181Z,2.97
2023-05-19T19:46:26.931Z,2.95
2023-05-19T19:48:57.228Z,1.88
2023-05-19T19:51:23.989Z,3.45
2023-05-19T19:53:50.720Z,3.03
2023-05-19T19:56:17.493Z,2.90
2023-05-19T19:58:44.452Z,3.10
2023-05-19T20:01:11.399Z,2.95
2023-05-19T20:03:38.327Z,2.95
2023-05-19T20:06:05.140Z,2.80
2023-05-19T20:08:31.835Z,2.70
2023-05-19T20:10:58.544Z,2.88
2023-05-19T20:13:25.252Z,2.95
2023-05-19T20:15:52.009Z,2.83
2023-05-19T20:18:18.860Z,3.00
2023-05-19T20:20:45.726Z,2.60
2023-05-19T20:23:13.270Z,2.83
2023-05-19T20:25:58.505Z,2.58
2023-05-19T20:28:29.558Z,2.95
2023-05-19T20:30:56.403Z,3.17
2023-05-19T20:33:23.138Z,5.38
2023-05-19T20:35:49.851Z,2.97
2023-05-19T20:38:16.594Z,2.88
2023-05-19T20:40:43.382Z,2.65
2023-05-19T20:43:10.151Z,2.80
2023-05-19T20:45:37.113Z,2.58
2023-05-19T20:48:04.604Z,2.90
2023-05-19T20:50:31.936Z,3.08
2023-05-19T20:52:58.876Z,2.90
2023-05-19T20:55:25.754Z,2.70
2023-05-19T20:57:52.438Z,2.97
2023-05-19T21:00:19.166Z,2.95
2023-05-19T21:02:45.953Z,2.63
2023-05-19T21:05:12.746Z,2.95
2023-05-19T21:07:39.510Z,3.15
2023-05-19T21:10:07.102Z,2.95
2023-05-19T21:12:34.266Z,3.10
2023-05-19T21:15:01.872Z,3.35
2023-05-19T21:17:28.677Z,2.90
2023-05-19T21:19:58.006Z,3.05
2023-05-19T21:22:26.590Z,3.15
2023-05-19T21:24:54.087Z,2.60
2023-05-19T21:27:21.128Z,2.80
2023-05-19T21:29:51.580Z,3.00
2023-05-19T21:32:18.397Z,3.00
2023-05-19T21:34:45.190Z,2.80
2023-05-19T21:37:11.976Z,3.50
2023-05-19T21:39:38.731Z,3.45
2023-05-19T21:42:06.351Z,3.60
2023-05-19T21:44:33.154Z,3.58
2023-05-19T21:46:59.916Z,2.95
2023-05-19T21:49:26.597Z,3.92
2023-05-19T21:51:56.418Z,3.22
2023-05-19T21:54:23.166Z,3.88
2023-05-19T21:56:49.830Z,3.40
2023-05-19T21:59:16.540Z,3.38
2023-05-19T22:01:43.385Z,3.58
2023-05-19T22:04:10.452Z,3.35
2023-05-19T22:06:37.224Z,3.35
2023-05-19T22:09:04.334Z,3.08
2023-05-19T22:11:31.402Z,3.42
2023-05-19T22:13:58.200Z,3.50
2023-05-19T22:16:25.234Z,3.33
2023-05-19T22:18:52.069Z,3.60
2023-05-19T22:21:18.953Z,4.03
2023-05-19T22:23:45.967Z,3.78
2023-05-19T22:26:12.826Z,4.47
2023-05-19T22:28:39.665Z,4.03
2023-05-19T22:31:06.610Z,3.42
2023-05-19T22:33:33.386Z,4.10
2023-05-19T22:36:00.135Z,4.05
2023-05-19T22:38:26.870Z,4.03
2023-05-19T22:40:53.613Z,3.50
2023-05-19T22:43:20.335Z,3.78
2023-05-19T22:45:47.116Z,3.38
2023-05-19T22:48:14.025Z,3.50
2023-05-19T22:50:40.764Z,4.05
2023-05-19T22:53:07.444Z,3.53
2023-05-19T22:55:34.345Z,3.95
2023-05-19T22:58:01.344Z,4.22
2023-05-19T23:00:28.073Z,3.78
2023-05-19T23:02:54.872Z,3.60
2023-05-19T23:05:21.596Z,3.88
2023-05-19T23:07:48.313Z,3.53
2023-05-19T23:10:15.086Z,4.10
2023-05-19T23:12:42.389Z,3.15
2023-05-19T23:15:12.335Z,3.53
2023-05-19T23:17:39.028Z,3.60
2023-05-19T23:20:06.407Z,3.50
2023-05-19T23:22:33.144Z,4.45
2023-05-19T23:25:01.822Z,3.97
2023-05-19T23:27:28.591Z,3.10
2023-05-19T23:29:55.414Z,4.47
2023-05-19T23:32:22.156Z,3.90
2023-05-19T23:34:48.948Z,3.20
2023-05-19T23:37:15.990Z,3.60
2023-05-19T23:39:43.178Z,3.00
2023-05-19T23:42:10.039Z,3.50
2023-05-19T23:44:36.813Z,3.05
2023-05-19T23:47:03.616Z,3.35
2023-05-19T23:49:30.476Z,3.25
2023-05-19T23:51:57.197Z,3.70
2023-05-19T23:54:24.231Z,3.78
2023-05-19T23:56:51.174Z,3.47
2023-05-19T23:59:17.862Z,3.40
